createdAt,value
2022-08-27T00:00:10.007Z,24.10
2022-08-27T00:00:48.981Z,24.16
2022-08-27T00:01:49.045Z,24.13
2022-08-27T00:02:49.030Z,24.14
2022-08-27T00:03:48.980Z,24.10
2022-08-27T00:04:48.942Z,24.01
2022-08-27T00:06:09.910Z,24.01
2022-08-27T00:06:48.919Z,24.08
2022-08-27T00:07:48.873Z,23.99
2022-08-27T00:08:48.873Z,23.99
2022-08-27T00:09:48.834Z,24.06
2022-08-27T00:10:48.829Z,24.01
2022-08-27T00:12:09.834Z,24.08
2022-08-27T00:12:48.795Z,24.10
2022-08-27T00:13:48.801Z,24.08
2022-08-27T00:14:48.753Z,24.02
2022-08-27T00:15:48.772Z,24.08
2022-08-27T00:16:48.767Z,24.06
2022-08-27T00:18:09.830Z,24.03
2022-08-27T00:18:48.698Z,24.02
2022-08-27T00:19:49.560Z,24.06
2022-08-27T00:20:48.670Z,24.08
2022-08-27T00:21:48.652Z,24.03
2022-08-27T00:22:48.644Z,24.02
2022-08-27T00:24:09.606Z,24.13
2022-08-27T00:24:49.277Z,24.10
2022-08-27T00:25:48.577Z,24.08
2022-08-27T00:26:48.593Z,24.01
2022-08-27T00:27:48.546Z,24.08
2022-08-27T00:28:48.560Z,23.99
2022-08-27T00:30:09.545Z,24.01
2022-08-27T00:30:49.077Z,24.03
2022-08-27T00:31:52.982Z,23.98
2022-08-27T00:32:48.483Z,23.98
2022-08-27T00:33:48.467Z,23.98
2022-08-27T00:34:48.429Z,23.95
2022-08-27T00:36:09.441Z,24.01
2022-08-27T00:36:48.398Z,24.06
2022-08-27T00:37:48.420Z,24.05
2022-08-27T00:38:48.364Z,24.05
2022-08-27T00:39:48.360Z,24.10
2022-08-27T00:40:48.335Z,24.10
2022-08-27T00:42:09.320Z,23.99
2022-08-27T00:42:48.432Z,24.02
2022-08-27T00:43:48.287Z,24.11
2022-08-27T00:44:48.295Z,24.02
2022-08-27T00:45:48.398Z,24.05
2022-08-27T00:46:48.268Z,24.02
2022-08-27T00:48:09.369Z,23.98
2022-08-27T00:48:48.230Z,24.02
2022-08-27T00:49:48.182Z,23.99
2022-08-27T00:50:49.089Z,24.01
2022-08-27T00:51:48.183Z,24.01
2022-08-27T00:52:48.156Z,24.03
2022-08-27T00:54:09.149Z,24.06
2022-08-27T00:54:48.117Z,23.98
2022-08-27T00:55:48.121Z,24.03
2022-08-27T00:56:51.847Z,24.08
2022-08-27T00:57:48.064Z,23.98
2022-08-27T00:58:48.039Z,24.01
2022-08-27T01:00:09.037Z,23.99
2022-08-27T01:00:48.156Z,24.05
2022-08-27T01:01:48.044Z,24.01
2022-08-27T01:02:48.018Z,24.06
2022-08-27T01:03:47.976Z,24.11
2022-08-27T01:04:47.960Z,24.08
2022-08-27T01:06:08.961Z,24.03
2022-08-27T01:06:47.933Z,24.01
2022-08-27T01:07:47.897Z,23.95
2022-08-27T01:08:48.587Z,23.91
2022-08-27T01:09:47.855Z,23.98
2022-08-27T01:10:47.866Z,23.91
2022-08-27T01:12:08.897Z,23.91
2022-08-27T01:12:53.380Z,23.87
2022-08-27T01:13:59.565Z,23.83
2022-08-27T01:14:47.778Z,23.91
2022-08-27T01:15:47.781Z,23.83
2022-08-27T01:16:47.753Z,23.91
2022-08-27T01:18:08.944Z,23.88
2022-08-27T01:18:47.718Z,23.84
2022-08-27T01:19:47.725Z,23.86
2022-08-27T01:20:47.686Z,23.88
2022-08-27T01:21:50.601Z,23.80
2022-08-27T01:22:47.699Z,23.83
2022-08-27T01:24:08.639Z,23.83
2022-08-27T01:24:47.653Z,23.86
2022-08-27T01:25:47.618Z,23.77
2022-08-27T01:26:47.595Z,23.83
2022-08-27T01:27:47.573Z,23.86
2022-08-27T01:28:47.570Z,23.77
2022-08-27T01:30:08.534Z,23.77
2022-08-27T01:30:48.103Z,23.87
2022-08-27T01:31:47.536Z,23.87
2022-08-27T01:32:47.525Z,23.86
2022-08-27T01:33:47.467Z,23.84
2022-08-27T01:34:47.467Z,23.77
2022-08-27T01:36:08.463Z,23.80
2022-08-27T01:36:47.414Z,23.81
2022-08-27T01:37:47.607Z,23.83
2022-08-27T01:38:47.392Z,23.74
2022-08-27T01:39:47.374Z,23.83
2022-08-27T01:40:47.350Z,23.84
2022-08-27T01:42:08.337Z,23.77
2022-08-27T01:42:47.324Z,23.80
2022-08-27T01:43:47.323Z,23.83
2022-08-27T01:44:47.311Z,23.80
2022-08-27T01:45:47.283Z,23.84
2022-08-27T01:46:47.304Z,23.76
2022-08-27T01:48:08.245Z,23.77
2022-08-27T01:48:47.236Z,23.77
2022-08-27T01:49:47.209Z,23.74
2022-08-27T01:50:47.200Z,23.68
2022-08-27T01:51:47.173Z,23.80
2022-08-27T01:52:48.107Z,23.77
2022-08-27T01:54:08.160Z,23.81
2022-08-27T01:54:47.125Z,23.77
2022-08-27T01:55:47.665Z,23.80
2022-08-27T01:56:47.101Z,23.78
2022-08-27T01:57:47.091Z,23.76
2022-08-27T01:58:47.088Z,23.81
2022-08-27T02:00:08.054Z,23.83
2022-08-27T02:00:47.072Z,23.81
2022-08-27T02:01:47.047Z,23.78
2022-08-27T02:02:47.034Z,23.77
2022-08-27T02:03:46.983Z,23.78
2022-08-27T02:04:46.954Z,23.83
2022-08-27T02:06:07.958Z,23.81
2022-08-27T02:06:46.948Z,23.81
2022-08-27T02:07:46.908Z,23.77
2022-08-27T02:08:46.917Z,23.76
2022-08-27T02:09:46.888Z,23.78
2022-08-27T02:10:46.989Z,23.76
2022-08-27T02:12:07.860Z,23.74
2022-08-27T02:12:46.840Z,23.77
2022-08-27T02:13:46.838Z,23.83
2022-08-27T02:14:48.484Z,23.76
2022-08-27T02:15:46.791Z,23.73
2022-08-27T02:16:52.630Z,23.76
2022-08-27T02:18:07.772Z,23.73
2022-08-27T02:18:46.744Z,23.73
2022-08-27T02:19:46.735Z,23.77
2022-08-27T02:20:46.690Z,23.69
2022-08-27T02:21:46.701Z,23.78
2022-08-27T02:22:46.664Z,23.73
2022-08-27T02:24:08.617Z,23.77
2022-08-27T02:24:46.650Z,23.68
2022-08-27T02:25:46.630Z,23.65
2022-08-27T02:26:46.679Z,23.66
2022-08-27T02:27:47.139Z,23.63
2022-08-27T02:28:46.588Z,23.69
2022-08-27T02:30:07.547Z,23.63
2022-08-27T02:30:46.563Z,23.66
2022-08-27T02:31:46.596Z,23.58
2022-08-27T02:32:46.511Z,23.65
2022-08-27T02:33:46.470Z,23.71
2022-08-27T02:34:46.494Z,23.73
2022-08-27T02:36:07.440Z,23.62
2022-08-27T02:36:46.453Z,23.65
2022-08-27T02:37:46.441Z,23.68
2022-08-27T02:38:46.401Z,23.66
2022-08-27T02:39:46.393Z,23.66
2022-08-27T02:40:46.388Z,23.73
2022-08-27T02:42:07.359Z,23.74
2022-08-27T02:42:46.330Z,23.74
2022-08-27T02:43:46.319Z,23.66
2022-08-27T02:44:46.314Z,23.73
2022-08-27T02:45:46.293Z,23.63
2022-08-27T02:46:46.314Z,23.73
2022-08-27T02:48:07.246Z,23.73
2022-08-27T02:48:46.304Z,23.66
2022-08-27T02:49:48.502Z,23.74
2022-08-27T02:50:46.330Z,23.71
2022-08-27T02:51:46.284Z,23.76
2022-08-27T02:52:46.586Z,23.74
2022-08-27T02:54:08.520Z,23.69
2022-08-27T02:54:46.157Z,23.66
2022-08-27T02:55:46.115Z,23.65
2022-08-27T02:56:46.107Z,23.62
2022-08-27T02:57:46.095Z,23.69
2022-08-27T02:58:46.069Z,23.68
2022-08-27T03:00:07.074Z,23.62
2022-08-27T03:00:46.038Z,23.68
2022-08-27T03:01:46.115Z,23.61
2022-08-27T03:02:46.738Z,23.59
2022-08-27T03:03:46.005Z,23.61
2022-08-27T03:04:45.962Z,23.63
2022-08-27T03:06:06.954Z,23.68
2022-08-27T03:06:45.942Z,23.68
2022-08-27T03:07:45.929Z,23.61
2022-08-27T03:08:52.309Z,23.68
2022-08-27T03:09:45.883Z,23.58
2022-08-27T03:10:45.875Z,23.69
2022-08-27T03:12:07.628Z,23.62
2022-08-27T03:12:45.832Z,23.62
2022-08-27T03:13:45.820Z,23.61
2022-08-27T03:14:45.793Z,23.63
2022-08-27T03:15:45.848Z,23.63
2022-08-27T03:16:45.769Z,23.68
2022-08-27T03:18:06.743Z,23.58
2022-08-27T03:18:45.769Z,23.61
2022-08-27T03:19:45.713Z,23.59
2022-08-27T03:20:45.711Z,23.63
2022-08-27T03:21:45.670Z,23.63
2022-08-27T03:22:45.754Z,23.58
2022-08-27T03:24:09.508Z,23.69
2022-08-27T03:24:48.147Z,23.63
2022-08-27T03:25:45.609Z,23.59
2022-08-27T03:26:52.893Z,23.69
2022-08-27T03:27:45.619Z,23.66
2022-08-27T03:28:45.573Z,23.78
2022-08-27T03:30:06.618Z,23.68
2022-08-27T03:30:45.533Z,23.68
2022-08-27T03:31:45.567Z,23.76
2022-08-27T03:32:45.522Z,23.69
2022-08-27T03:33:45.492Z,23.71
2022-08-27T03:34:45.464Z,23.76
2022-08-27T03:36:06.453Z,23.71
2022-08-27T03:36:46.905Z,23.74
2022-08-27T03:37:46.140Z,23.78
2022-08-27T03:38:45.404Z,23.77
2022-08-27T03:39:45.385Z,23.76
2022-08-27T03:40:45.401Z,23.69
2022-08-27T03:42:06.343Z,23.77
2022-08-27T03:42:45.343Z,23.77
2022-08-27T03:43:45.310Z,23.77
2022-08-27T03:44:45.315Z,23.76
2022-08-27T03:45:57.075Z,23.87
2022-08-27T03:46:46.208Z,23.76
2022-08-27T03:48:06.264Z,23.78
2022-08-27T03:48:45.239Z,23.83
2022-08-27T03:49:45.221Z,23.78
2022-08-27T03:50:45.214Z,23.87
2022-08-27T03:51:45.199Z,23.84
2022-08-27T03:52:45.170Z,23.96
2022-08-27T03:54:06.163Z,23.93
2022-08-27T03:54:45.138Z,23.93
2022-08-27T03:55:45.121Z,23.86
2022-08-27T03:56:45.102Z,23.86
2022-08-27T03:57:45.099Z,23.91
2022-08-27T03:58:45.085Z,23.91
2022-08-27T04:00:06.053Z,23.92
2022-08-27T04:00:45.058Z,24.01
2022-08-27T04:01:45.093Z,23.92
2022-08-27T04:02:45.046Z,23.96
2022-08-27T04:03:44.991Z,23.93
2022-08-27T04:04:44.982Z,23.93
2022-08-27T04:06:05.954Z,23.99
2022-08-27T04:06:44.953Z,23.99
2022-08-27T04:07:44.922Z,23.98
2022-08-27T04:08:45.675Z,24.08
2022-08-27T04:09:44.919Z,24.08
2022-08-27T04:10:44.879Z,24.02
2022-08-27T04:12:05.870Z,24.17
2022-08-27T04:12:44.843Z,24.08
2022-08-27T04:13:44.835Z,24.14
2022-08-27T04:14:44.808Z,24.05
2022-08-27T04:15:44.855Z,24.17
2022-08-27T04:16:44.781Z,24.16
2022-08-27T04:18:05.762Z,24.21
2022-08-27T04:18:44.775Z,24.13
2022-08-27T04:19:44.728Z,24.16
2022-08-27T04:20:44.723Z,24.14
2022-08-27T04:21:44.694Z,24.13
2022-08-27T04:22:44.686Z,24.20
2022-08-27T04:24:05.661Z,24.20
2022-08-27T04:24:45.602Z,24.20
2022-08-27T04:25:44.624Z,24.28
2022-08-27T04:26:44.625Z,24.33
2022-08-27T04:27:44.636Z,24.28
2022-08-27T04:28:48.810Z,24.33
2022-08-27T04:30:05.581Z,24.32
2022-08-27T04:30:45.222Z,24.32
2022-08-27T04:31:44.621Z,24.36
2022-08-27T04:32:44.511Z,24.39
2022-08-27T04:33:50.969Z,24.39
2022-08-27T04:34:44.480Z,24.42
2022-08-27T04:36:05.476Z,24.40
2022-08-27T04:36:44.448Z,24.43
2022-08-27T04:37:44.448Z,24.38
2022-08-27T04:38:44.418Z,24.47
2022-08-27T04:39:49.760Z,24.42
2022-08-27T04:40:44.425Z,24.42
2022-08-27T04:42:05.376Z,24.43
2022-08-27T04:42:44.364Z,24.45
2022-08-27T04:43:44.343Z,24.48
2022-08-27T04:44:44.334Z,24.55
2022-08-27T04:45:44.303Z,24.61
2022-08-27T04:46:47.902Z,24.55
2022-08-27T04:48:05.317Z,24.66
2022-08-27T04:48:48.057Z,24.60
2022-08-27T04:49:44.236Z,24.66
2022-08-27T04:50:44.234Z,24.77
2022-08-27T04:51:44.237Z,24.76
2022-08-27T04:52:44.194Z,24.76
2022-08-27T04:54:05.698Z,24.76
2022-08-27T04:54:44.153Z,24.86
2022-08-27T04:55:44.155Z,24.86
2022-08-27T04:56:44.125Z,24.78
2022-08-27T04:57:44.124Z,24.85
2022-08-27T04:58:44.120Z,24.89
2022-08-27T05:00:05.092Z,24.96
2022-08-27T05:00:44.123Z,24.96
2022-08-27T05:01:44.101Z,24.98
2022-08-27T05:02:44.049Z,24.96
2022-08-27T05:03:44.021Z,24.95
2022-08-27T05:04:44.062Z,25.08
2022-08-27T05:06:05.023Z,25.10
2022-08-27T05:06:43.980Z,25.14
2022-08-27T05:07:43.982Z,25.07
2022-08-27T05:08:43.943Z,25.10
2022-08-27T05:09:43.953Z,25.14
2022-08-27T05:12:04.926Z,25.21
2022-08-27T05:12:44.584Z,25.21
2022-08-27T05:13:43.879Z,25.25
2022-08-27T05:14:43.889Z,25.25
2022-08-27T05:15:44.777Z,25.21
2022-08-27T05:18:17.956Z,25.23
2022-08-27T05:19:15.333Z,25.22
2022-08-27T05:20:15.324Z,25.23
2022-08-27T05:21:15.392Z,25.21
2022-08-27T05:22:15.327Z,25.26
2022-08-27T05:23:15.956Z,25.33
2022-08-27T05:24:15.254Z,25.33
2022-08-27T05:25:15.256Z,25.28
2022-08-27T05:26:15.284Z,25.29
2022-08-27T05:27:15.254Z,25.35
2022-08-27T05:28:15.202Z,25.41
2022-08-27T05:29:15.184Z,25.38
2022-08-27T05:30:15.186Z,25.41
2022-08-27T05:31:15.276Z,25.35
2022-08-27T05:32:15.931Z,25.38
2022-08-27T05:33:15.119Z,25.36
2022-08-27T05:34:16.475Z,25.38
2022-08-27T05:35:15.826Z,25.48
2022-08-27T05:36:15.109Z,25.48
2022-08-27T05:37:15.108Z,25.51
2022-08-27T05:38:15.050Z,25.59
2022-08-27T05:39:15.035Z,25.55
2022-08-27T05:40:15.087Z,25.62
2022-08-27T05:41:15.021Z,25.60
2022-08-27T05:42:14.981Z,25.72
2022-08-27T05:43:14.969Z,25.78
2022-08-27T05:44:39.433Z,25.84
2022-08-27T05:45:15.000Z,25.85
2022-08-27T05:46:17.512Z,25.93
2022-08-27T05:47:14.908Z,26.06
2022-08-27T05:48:14.899Z,26.06
2022-08-27T05:49:14.882Z,26.05
2022-08-27T05:50:14.878Z,26.03
2022-08-27T05:51:16.187Z,26.05
2022-08-27T05:52:14.833Z,26.13
2022-08-27T05:53:14.832Z,26.13
2022-08-27T05:54:14.825Z,26.31
2022-08-27T05:55:14.819Z,26.26
2022-08-27T05:56:14.772Z,26.29
2022-08-27T05:57:14.757Z,26.38
2022-08-27T05:58:14.752Z,26.33
2022-08-27T05:59:14.747Z,26.33
2022-08-27T06:00:15.709Z,26.36
2022-08-27T06:01:14.700Z,26.43
2022-08-27T06:02:14.742Z,26.45
2022-08-27T06:03:14.670Z,26.45
2022-08-27T06:04:17.944Z,26.47
2022-08-27T06:05:15.522Z,26.63
2022-08-27T06:06:14.619Z,26.66
2022-08-27T06:07:14.616Z,26.63
2022-08-27T06:08:14.611Z,26.73
2022-08-27T06:09:14.610Z,26.73
2022-08-27T06:10:14.565Z,26.74
2022-08-27T06:11:14.549Z,26.74
2022-08-27T06:12:14.555Z,26.66
2022-08-27T06:13:14.525Z,26.81
2022-08-27T06:14:14.541Z,26.85
2022-08-27T06:15:14.495Z,26.89
2022-08-27T06:16:14.528Z,26.92
2022-08-27T06:17:14.479Z,27.03
2022-08-27T06:18:14.456Z,26.96
2022-08-27T06:19:14.469Z,27.03
2022-08-27T06:20:14.424Z,27.08
2022-08-27T06:21:14.407Z,27.08
2022-08-27T06:22:14.410Z,27.10
2022-08-27T06:23:14.383Z,27.11
2022-08-27T06:24:14.954Z,27.15
2022-08-27T06:25:14.344Z,27.20
2022-08-27T06:26:14.345Z,27.35
2022-08-27T06:27:14.320Z,27.36
2022-08-27T06:28:14.317Z,27.40
2022-08-27T06:29:14.340Z,27.52
2022-08-27T06:30:17.399Z,27.67
2022-08-27T06:31:14.300Z,27.78
2022-08-27T06:32:14.251Z,27.87
2022-08-27T06:33:14.264Z,28.04
2022-08-27T06:34:14.271Z,28.12
2022-08-27T06:35:14.881Z,28.15
2022-08-27T06:36:14.213Z,28.33
2022-08-27T06:37:14.205Z,28.45
2022-08-27T06:38:14.193Z,28.51
2022-08-27T06:39:14.202Z,28.57
2022-08-27T06:40:14.237Z,28.75
2022-08-27T06:41:23.316Z,28.88
2022-08-27T06:42:14.138Z,28.98
2022-08-27T06:43:14.111Z,29.07
2022-08-27T06:44:14.128Z,29.13
2022-08-27T06:45:14.070Z,29.17
2022-08-27T06:46:14.186Z,29.19
2022-08-27T06:47:14.065Z,29.24
2022-08-27T06:48:14.063Z,29.36
2022-08-27T06:49:14.070Z,29.32
2022-08-27T06:50:17.630Z,29.34
2022-08-27T06:51:14.000Z,29.45
2022-08-27T06:52:13.996Z,29.49
2022-08-27T06:53:13.994Z,29.63
2022-08-27T06:54:13.981Z,29.61
2022-08-27T06:55:13.941Z,29.84
2022-08-27T06:56:13.943Z,29.86
2022-08-27T06:57:13.930Z,29.91
2022-08-27T06:58:13.934Z,30.02
2022-08-27T06:59:13.932Z,30.12
2022-08-27T07:00:13.878Z,30.25
2022-08-27T07:01:13.916Z,30.44
2022-08-27T07:02:13.930Z,30.46
2022-08-27T07:03:13.876Z,30.69
2022-08-27T07:04:13.847Z,30.77
2022-08-27T07:05:14.497Z,30.91
2022-08-27T07:06:13.804Z,30.94
2022-08-27T07:07:13.804Z,31.15
2022-08-27T07:08:13.795Z,31.10
2022-08-27T07:09:13.777Z,31.21
2022-08-27T07:10:14.524Z,31.28
2022-08-27T07:11:13.749Z,31.44
2022-08-27T07:12:13.745Z,31.58
2022-08-27T07:13:13.728Z,31.55
2022-08-27T07:14:13.729Z,31.77
2022-08-27T07:15:13.729Z,31.85
2022-08-27T07:16:14.570Z,31.93
2022-08-27T07:17:16.372Z,32.03
2022-08-27T07:18:13.681Z,32.18
2022-08-27T07:19:13.669Z,32.19
2022-08-27T07:20:13.655Z,32.40
2022-08-27T07:21:13.659Z,32.41
2022-08-27T07:22:14.498Z,32.60
2022-08-27T07:23:13.614Z,32.65
2022-08-27T07:24:13.611Z,32.77
2022-08-27T07:25:13.607Z,32.89
2022-08-27T07:26:13.603Z,32.97
2022-08-27T07:27:13.606Z,32.97
2022-08-27T07:28:13.593Z,33.11
2022-08-27T07:29:13.550Z,33.17
2022-08-27T07:30:13.538Z,33.28
2022-08-27T07:31:13.637Z,33.30
2022-08-27T07:32:13.544Z,33.30
2022-08-27T07:33:13.556Z,33.43
2022-08-27T07:34:13.533Z,33.42
2022-08-27T07:35:13.492Z,33.45
2022-08-27T07:36:13.477Z,33.61
2022-08-27T07:37:13.482Z,33.67
2022-08-27T07:38:13.486Z,33.65
2022-08-27T07:39:14.007Z,33.71
2022-08-27T07:40:13.520Z,33.69
2022-08-27T07:41:13.426Z,33.79
2022-08-27T07:42:13.412Z,33.84
2022-08-27T07:43:13.418Z,33.86
2022-08-27T07:44:13.425Z,33.96
2022-08-27T07:45:13.414Z,33.95
2022-08-27T07:46:13.456Z,33.95
2022-08-27T07:47:13.370Z,34.06
2022-08-27T07:48:13.355Z,34.11
2022-08-27T07:49:13.359Z,34.11
2022-08-27T07:50:13.375Z,34.23
2022-08-27T07:51:13.371Z,34.23
2022-08-27T07:52:14.024Z,34.24
2022-08-27T07:53:13.305Z,34.21
2022-08-27T07:54:13.292Z,34.21
2022-08-27T07:55:13.296Z,34.21
2022-08-27T07:56:13.288Z,34.32
2022-08-27T07:57:13.307Z,34.27
2022-08-27T07:58:18.142Z,34.20
2022-08-27T07:59:13.252Z,34.24
2022-08-27T08:00:13.260Z,34.24
2022-08-27T08:01:13.303Z,34.25
2022-08-27T08:02:13.265Z,34.17
2022-08-27T08:03:13.249Z,34.11
2022-08-27T08:04:16.971Z,34.17
2022-08-27T08:05:13.186Z,34.20
2022-08-27T08:06:13.198Z,34.17
2022-08-27T08:07:13.171Z,34.16
2022-08-27T08:08:13.180Z,34.13
2022-08-27T08:09:13.183Z,34.10
2022-08-27T08:10:13.178Z,34.14
2022-08-27T08:11:13.127Z,34.05
2022-08-27T08:12:13.123Z,33.98
2022-08-27T08:13:13.150Z,34.14
2022-08-27T08:14:13.136Z,34.08
2022-08-27T08:15:13.131Z,34.01
2022-08-27T08:16:13.103Z,33.95
2022-08-27T08:17:13.125Z,33.87
2022-08-27T08:18:13.065Z,33.86
2022-08-27T08:19:13.053Z,33.84
2022-08-27T08:20:24.135Z,33.90
2022-08-27T08:21:13.068Z,33.87
2022-08-27T08:22:13.079Z,33.81
2022-08-27T08:23:13.010Z,33.74
2022-08-27T08:24:13.017Z,33.83
2022-08-27T08:25:13.024Z,33.86
2022-08-27T08:26:12.993Z,33.87
2022-08-27T08:27:12.986Z,33.90
2022-08-27T08:28:12.996Z,33.94
2022-08-27T08:29:13.317Z,33.92
2022-08-27T08:30:12.985Z,33.90
2022-08-27T08:31:12.949Z,33.94
2022-08-27T08:32:12.932Z,33.96
2022-08-27T08:33:12.934Z,34.02
2022-08-27T08:34:15.098Z,33.96
2022-08-27T08:35:12.891Z,34.01
2022-08-27T08:36:12.886Z,34.06
2022-08-27T08:37:12.863Z,34.14
2022-08-27T08:38:12.945Z,34.05
2022-08-27T08:39:12.861Z,34.14
2022-08-27T08:40:12.950Z,34.06
2022-08-27T08:41:12.883Z,34.11
2022-08-27T08:42:12.829Z,34.11
2022-08-27T08:43:12.806Z,34.20
2022-08-27T08:44:12.809Z,34.16
2022-08-27T08:45:12.802Z,34.25
2022-08-27T08:46:12.896Z,34.23
2022-08-27T08:47:12.817Z,34.20
2022-08-27T08:48:12.812Z,34.25
2022-08-27T08:49:12.760Z,34.24
2022-08-27T08:50:15.680Z,34.20
2022-08-27T08:51:12.743Z,34.29
2022-08-27T08:52:12.742Z,34.17
2022-08-27T08:53:13.572Z,34.20
2022-08-27T08:54:12.700Z,34.10
2022-08-27T08:55:12.694Z,34.21
2022-08-27T08:56:12.693Z,34.23
2022-08-27T08:57:12.690Z,34.16
2022-08-27T08:58:12.947Z,34.21
2022-08-27T08:59:13.560Z,34.30
2022-08-27T09:00:12.767Z,34.30
2022-08-27T09:01:12.649Z,34.36
2022-08-27T09:02:13.574Z,34.35
2022-08-27T09:03:12.617Z,34.45
2022-08-27T09:04:12.710Z,34.45
2022-08-27T09:05:13.566Z,34.47
2022-08-27T09:06:12.587Z,34.50
2022-08-27T09:07:12.571Z,34.51
2022-08-27T09:08:32.936Z,34.54
2022-08-27T09:09:12.558Z,34.48
2022-08-27T09:10:12.573Z,34.58
2022-08-27T09:11:12.565Z,34.62
2022-08-27T09:12:12.521Z,34.58
2022-08-27T09:13:12.513Z,34.62
2022-08-27T09:14:13.419Z,34.74
2022-08-27T09:15:12.708Z,34.60
2022-08-27T09:16:12.534Z,34.60
2022-08-27T09:17:12.564Z,34.51
2022-08-27T09:18:14.148Z,34.51
2022-08-27T09:19:13.225Z,34.57
2022-08-27T09:20:13.622Z,34.43
2022-08-27T09:21:12.451Z,34.52
2022-08-27T09:22:12.453Z,34.54
2022-08-27T09:23:12.419Z,34.55
2022-08-27T09:24:13.083Z,34.61
2022-08-27T09:25:12.462Z,34.60
2022-08-27T09:26:12.392Z,34.74
2022-08-27T09:27:12.389Z,34.62
2022-08-27T09:28:12.479Z,34.61
2022-08-27T09:29:12.376Z,34.78
2022-08-27T09:30:15.117Z,34.75
2022-08-27T09:31:12.447Z,34.70
2022-08-27T09:32:12.333Z,34.89
2022-08-27T09:33:12.329Z,34.88
2022-08-27T09:34:12.333Z,34.96
2022-08-27T09:35:12.326Z,35.07
2022-08-27T09:36:12.347Z,35.08
2022-08-27T09:37:12.321Z,35.19
2022-08-27T09:38:12.392Z,35.31
2022-08-27T09:39:12.267Z,35.29
2022-08-27T09:40:13.606Z,35.39
2022-08-27T09:41:12.281Z,35.51
2022-08-27T09:42:12.263Z,35.66
2022-08-27T09:43:13.090Z,35.61
2022-08-27T09:44:12.233Z,35.74
2022-08-27T09:45:12.216Z,35.85
2022-08-27T09:46:12.235Z,35.80
2022-08-27T09:47:12.218Z,35.90
2022-08-27T09:48:12.294Z,35.98
2022-08-27T09:49:12.213Z,36.05
2022-08-27T09:50:12.167Z,36.18
2022-08-27T09:51:12.160Z,36.21
2022-08-27T09:52:12.148Z,36.24
2022-08-27T09:53:12.156Z,36.23
2022-08-27T09:54:12.174Z,36.24
2022-08-27T09:55:12.151Z,36.27
2022-08-27T09:56:13.097Z,36.25
2022-08-27T09:57:12.135Z,36.37
2022-08-27T09:58:12.302Z,36.36
2022-08-27T09:59:12.094Z,36.37
2022-08-27T10:00:12.097Z,36.39
2022-08-27T10:01:12.103Z,36.28
2022-08-27T10:02:12.342Z,36.42
2022-08-27T10:03:12.115Z,36.30
2022-08-27T10:04:12.248Z,36.30
2022-08-27T10:05:12.039Z,36.30
2022-08-27T10:06:12.039Z,36.39
2022-08-27T10:07:12.047Z,36.37
2022-08-27T10:08:12.276Z,36.43
2022-08-27T10:09:12.014Z,36.40
2022-08-27T10:10:12.069Z,36.46
2022-08-27T10:11:12.037Z,36.52
2022-08-27T10:12:11.978Z,36.64
2022-08-27T10:13:11.988Z,36.57
2022-08-27T10:14:11.989Z,36.68
2022-08-27T10:15:12.617Z,36.68
2022-08-27T10:16:12.665Z,36.67
2022-08-27T10:17:11.937Z,36.65
2022-08-27T10:18:12.164Z,36.70
2022-08-27T10:19:11.926Z,36.70
2022-08-27T10:20:11.930Z,36.73
2022-08-27T10:21:11.926Z,36.68
2022-08-27T10:22:11.917Z,36.67
2022-08-27T10:23:11.921Z,36.72
2022-08-27T10:24:11.947Z,36.61
2022-08-27T10:25:11.875Z,36.80
2022-08-27T10:26:11.874Z,36.76
2022-08-27T10:27:11.879Z,36.88
2022-08-27T10:28:12.088Z,36.95
2022-08-27T10:29:11.859Z,36.92
2022-08-27T10:30:11.825Z,36.99
2022-08-27T10:31:11.843Z,36.89
2022-08-27T10:32:11.810Z,36.96
2022-08-27T10:33:11.821Z,36.88
2022-08-27T10:34:12.366Z,36.91
2022-08-27T10:35:11.813Z,36.88
2022-08-27T10:36:11.815Z,36.89
2022-08-27T10:37:11.833Z,36.96
2022-08-27T10:38:12.001Z,36.88
2022-08-27T10:39:11.755Z,36.86
2022-08-27T10:40:11.834Z,36.84
2022-08-27T10:41:11.754Z,36.77
2022-08-27T10:42:11.752Z,36.68
2022-08-27T10:43:11.735Z,36.73
2022-08-27T10:44:11.738Z,36.73
2022-08-27T10:45:11.717Z,36.79
2022-08-27T10:46:11.727Z,36.74
2022-08-27T10:47:11.708Z,36.73
2022-08-27T10:48:11.909Z,36.80
2022-08-27T10:49:15.838Z,36.84
2022-08-27T10:50:11.689Z,36.89
2022-08-27T10:51:11.665Z,36.96
2022-08-27T10:52:11.659Z,37.07
2022-08-27T10:53:11.648Z,37.15
2022-08-27T10:54:11.653Z,37.18
2022-08-27T10:55:11.656Z,37.28
2022-08-27T10:56:11.633Z,37.32
2022-08-27T10:57:28.936Z,37.39
2022-08-27T10:58:11.818Z,37.51
2022-08-27T10:59:11.599Z,37.53
2022-08-27T11:00:11.684Z,37.51
2022-08-27T11:01:11.661Z,37.48
2022-08-27T11:02:11.662Z,37.48
2022-08-27T11:03:13.883Z,37.48
2022-08-27T11:04:11.572Z,37.51
2022-08-27T11:05:11.597Z,37.51
2022-08-27T11:06:11.546Z,37.44
2022-08-27T11:07:11.541Z,37.60
2022-08-27T11:08:11.739Z,37.58
2022-08-27T11:09:11.539Z,37.64
2022-08-27T11:10:11.622Z,37.60
2022-08-27T11:11:57.138Z,37.58
2022-08-27T11:12:15.368Z,37.58
2022-08-27T11:13:11.490Z,37.55
2022-08-27T11:14:11.486Z,37.59
2022-08-27T11:15:13.190Z,37.47
2022-08-27T11:16:11.542Z,37.45
2022-08-27T11:17:11.466Z,37.49
2022-08-27T11:18:11.707Z,37.56
2022-08-27T11:19:11.441Z,37.53
2022-08-27T11:20:11.427Z,37.44
2022-08-27T11:21:11.431Z,37.58
2022-08-27T11:22:14.908Z,37.47
2022-08-27T11:23:11.442Z,37.51
2022-08-27T11:24:11.444Z,37.56
2022-08-27T11:25:11.468Z,37.56
2022-08-27T11:26:11.379Z,37.56
2022-08-27T11:27:11.376Z,37.53
2022-08-27T11:28:11.506Z,37.44
2022-08-27T11:29:11.361Z,37.48
2022-08-27T11:30:11.359Z,37.45
2022-08-27T11:31:11.410Z,37.44
2022-08-27T11:32:11.387Z,37.45
2022-08-27T11:33:13.928Z,37.42
2022-08-27T11:34:11.316Z,37.44
2022-08-27T11:35:11.320Z,37.45
2022-08-27T11:36:11.304Z,37.39
2022-08-27T11:37:11.317Z,37.36
2022-08-27T11:38:11.486Z,37.33
2022-08-27T11:39:11.310Z,37.36
2022-08-27T11:40:11.313Z,37.33
2022-08-27T11:41:11.258Z,37.35
2022-08-27T11:42:11.275Z,37.39
2022-08-27T11:43:11.248Z,37.37
2022-08-27T11:44:11.242Z,37.36
2022-08-27T11:45:11.248Z,37.45
2022-08-27T11:46:11.260Z,37.39
2022-08-27T11:47:11.242Z,37.44
2022-08-27T11:48:11.379Z,37.40
2022-08-27T11:49:11.214Z,37.49
2022-08-27T11:50:11.193Z,37.48
2022-08-27T11:51:11.213Z,37.47
2022-08-27T11:52:11.193Z,37.48
2022-08-27T11:53:11.161Z,37.45
2022-08-27T11:54:11.156Z,37.58
2022-08-27T11:55:11.145Z,37.56
2022-08-27T11:56:11.161Z,37.60
2022-08-27T11:57:11.141Z,37.56
2022-08-27T11:58:11.492Z,37.64
2022-08-27T11:59:11.143Z,37.65
2022-08-27T12:00:11.116Z,37.67
2022-08-27T12:01:11.102Z,37.78
2022-08-27T12:02:11.101Z,37.72
2022-08-27T12:03:11.159Z,37.72
2022-08-27T12:04:11.138Z,37.84
2022-08-27T12:05:11.102Z,37.83
2022-08-27T12:06:11.085Z,37.78
2022-08-27T12:07:11.965Z,37.90
2022-08-27T12:08:11.224Z,37.93
2022-08-27T12:09:11.049Z,37.93
2022-08-27T12:10:11.051Z,37.96
2022-08-27T12:11:11.030Z,38.02
2022-08-27T12:12:11.051Z,38.04
2022-08-27T12:13:11.033Z,37.97
2022-08-27T12:14:11.056Z,37.92
2022-08-27T12:15:11.010Z,37.82
2022-08-27T12:16:11.020Z,37.78
2022-08-27T12:17:10.997Z,37.80
2022-08-27T12:18:11.240Z,37.75
2022-08-27T12:19:10.998Z,37.80
2022-08-27T12:20:10.989Z,37.80
2022-08-27T12:21:11.004Z,37.83
2022-08-27T12:22:10.940Z,37.84
2022-08-27T12:23:10.933Z,37.82
2022-08-27T12:24:10.942Z,37.82
2022-08-27T12:25:10.918Z,37.87
2022-08-27T12:26:10.938Z,37.80
2022-08-27T12:27:10.936Z,37.92
2022-08-27T12:28:11.790Z,37.90
2022-08-27T12:29:10.885Z,37.92
2022-08-27T12:30:10.882Z,37.92
2022-08-27T12:31:10.947Z,37.92
2022-08-27T12:32:10.883Z,37.96
2022-08-27T12:33:10.864Z,37.92
2022-08-27T12:34:10.892Z,37.83
2022-08-27T12:35:11.714Z,37.94
2022-08-27T12:36:11.074Z,37.96
2022-08-27T12:37:10.831Z,37.92
2022-08-27T12:38:11.077Z,37.84
2022-08-27T12:39:10.822Z,37.82
2022-08-27T12:40:10.881Z,37.84
2022-08-27T12:41:10.834Z,37.67
2022-08-27T12:42:11.698Z,37.74
2022-08-27T12:43:10.777Z,37.64
2022-08-27T12:44:10.770Z,37.67
2022-08-27T12:45:10.791Z,37.71
2022-08-27T12:46:10.780Z,37.67
2022-08-27T12:47:10.862Z,37.59
2022-08-27T12:48:10.915Z,37.64
2022-08-27T12:49:37.847Z,37.60
2022-08-27T12:50:10.721Z,37.60
2022-08-27T12:51:10.718Z,37.59
2022-08-27T12:52:10.728Z,37.63
2022-08-27T12:53:10.732Z,37.53
2022-08-27T12:54:10.719Z,37.49